createdAt,value
2018-03-04T09:14:32.336Z,993.65
2018-03-04T09:17:13.737Z,993.66
2018-03-04T09:19:15.270Z,993.60
2018-03-04T09:21:16.663Z,993.60
2018-03-04T09:23:18.145Z,993.58
2018-03-04T09:25:27.962Z,993.62
2018-03-04T09:27:29.640Z,993.69
2018-03-04T09:29:31.062Z,993.69
2018-03-04T09:31:32.520Z,993.73
2018-03-04T09:34:14.960Z,993.79
2018-03-04T09:36:16.518Z,993.72
2018-03-04T09:38:17.926Z,993.62
2018-03-04T09:40:21.013Z,993.58
2018-03-04T09:42:29.125Z,993.63
2018-03-04T09:44:30.647Z,993.67
2018-03-04T09:47:12.229Z,993.60
2018-03-04T09:49:54.772Z,993.66
2018-03-04T09:52:45.517Z,993.61
2018-03-04T09:55:28.067Z,993.56
2018-03-04T09:57:29.471Z,993.52
2018-03-04T09:59:31.690Z,993.55
2018-03-04T10:01:33.284Z,993.57
2018-03-04T10:03:34.957Z,993.50
2018-03-04T10:05:36.901Z,993.49
2018-03-04T10:07:38.743Z,993.54
2018-03-04T10:09:41.117Z,993.50
2018-03-04T10:11:42.853Z,993.41
2018-03-04T10:13:44.935Z,993.36
2018-03-04T10:15:46.457Z,993.32
2018-03-04T10:17:50.779Z,993.38
2018-03-04T10:19:52.666Z,993.35
2018-03-04T10:21:54.354Z,993.24
2018-03-04T10:23:55.939Z,993.19
2018-03-04T10:25:58.527Z,993.22
2018-03-04T10:28:00.182Z,993.19
2018-03-04T10:30:01.921Z,993.22
2018-03-04T10:32:04.288Z,993.24
2018-03-04T10:34:06.452Z,993.20
2018-03-04T10:36:08.066Z,993.19
2018-03-04T10:38:49.434Z,993.15
2018-03-04T10:40:50.841Z,993.15
2018-03-04T10:42:52.245Z,993.20
2018-03-04T10:44:53.658Z,993.17
2018-03-04T10:46:55.066Z,993.18
2018-03-04T10:48:56.511Z,993.11
2018-03-04T10:50:57.917Z,993.14
2018-03-04T10:52:59.324Z,993.08
2018-03-04T10:55:00.734Z,993.02
2018-03-04T10:57:02.145Z,993.01
2018-03-04T10:59:03.545Z,993.00
2018-03-04T11:01:04.963Z,993.09
2018-03-04T11:03:06.368Z,993.04
2018-03-04T11:05:08.675Z,993.00
2018-03-04T11:07:11.307Z,992.94
2018-03-04T11:09:13.894Z,992.89
2018-03-04T11:11:15.463Z,992.88
2018-03-04T11:13:17.722Z,992.96
2018-03-04T11:15:19.440Z,992.92
2018-03-04T11:17:20.808Z,992.91
2018-03-04T11:19:22.874Z,992.83
2018-03-04T11:21:24.379Z,992.76
2018-03-04T11:23:25.800Z,992.80
2018-03-04T11:25:27.235Z,992.75
2018-03-04T11:27:28.645Z,992.70
2018-03-04T11:29:30.065Z,992.67
2018-03-04T11:31:31.523Z,992.62
2018-03-04T11:33:32.947Z,992.52
2018-03-04T11:35:34.446Z,992.51
2018-03-04T11:37:35.859Z,992.47
2018-03-04T11:39:37.363Z,992.49
2018-03-04T11:41:38.821Z,992.40
2018-03-04T11:43:40.236Z,992.43
2018-03-04T11:45:41.649Z,992.47
2018-03-04T11:47:43.071Z,992.47
2018-03-04T11:49:44.484Z,992.44
2018-03-04T11:51:45.892Z,992.37
2018-03-04T11:53:47.404Z,992.41
2018-03-04T11:55:48.886Z,992.42
2018-03-04T11:57:51.552Z,992.41
2018-03-04T11:59:53.729Z,992.38
2018-03-04T12:01:55.805Z,992.41
2018-03-04T12:03:57.334Z,992.44
2018-03-04T12:06:39.968Z,992.38
2018-03-04T12:08:41.384Z,992.49
2018-03-04T12:10:42.804Z,992.57
2018-03-04T12:12:44.231Z,992.57
2018-03-04T12:14:45.645Z,992.55
2018-03-04T12:16:47.062Z,992.52
2018-03-04T12:18:48.504Z,992.46
2018-03-04T12:20:49.921Z,992.43
2018-03-04T12:22:51.333Z,992.45
2018-03-04T12:25:33.824Z,992.37
2018-03-04T12:27:36.320Z,992.27
2018-03-04T12:29:39.656Z,992.28
2018-03-04T12:31:42.656Z,992.26
2018-03-04T12:33:44.133Z,992.20
2018-03-04T12:35:45.603Z,992.07
2018-03-04T12:37:47.123Z,992.04
2018-03-04T12:39:48.620Z,992.12
2018-03-04T12:41:50.114Z,992.10
2018-03-04T12:44:31.503Z,992.16
2018-03-04T12:46:32.917Z,992.09
2018-03-04T12:48:35.898Z,992.15
2018-03-04T12:50:37.306Z,992.09
2018-03-04T12:52:38.729Z,992.16
2018-03-04T12:54:40.138Z,992.22
2018-03-04T12:56:41.564Z,992.13
2018-03-04T12:58:42.976Z,992.17
2018-03-04T13:00:44.390Z,992.02
2018-03-04T13:03:26.980Z,992.01
2018-03-04T13:05:28.382Z,991.95
2018-03-04T13:07:29.807Z,991.87
2018-03-04T13:09:31.216Z,991.93
2018-03-04T13:11:32.637Z,991.78
2018-03-04T13:13:35.119Z,991.77
2018-03-04T13:15:36.577Z,991.75
2018-03-04T13:17:37.940Z,991.74
2018-03-04T13:19:39.387Z,991.65
2018-03-04T13:21:40.812Z,991.67
2018-03-04T13:24:23.214Z,991.59
2018-03-04T13:26:24.628Z,991.58
2018-03-04T13:28:26.049Z,991.52
2018-03-04T13:30:27.467Z,991.54
2018-03-04T13:32:28.882Z,991.47
2018-03-04T13:34:30.302Z,991.50
2018-03-04T13:36:31.710Z,991.42
2018-03-04T13:38:33.184Z,991.42
2018-03-04T13:40:34.666Z,991.38
2018-03-04T13:42:37.864Z,991.38
2018-03-04T13:44:39.209Z,991.35
2018-03-04T13:46:40.649Z,991.35
2018-03-04T13:48:42.093Z,991.30
2018-03-04T13:50:43.551Z,991.26
2018-03-04T13:52:45.282Z,991.31
2018-03-04T13:54:46.938Z,991.36
2018-03-04T13:56:48.406Z,991.30
2018-03-04T13:58:49.852Z,991.32
2018-03-04T14:00:51.861Z,991.31
2018-03-04T14:02:53.414Z,991.30
2018-03-04T14:04:55.145Z,991.27
2018-03-04T14:06:56.683Z,991.16
2018-03-04T14:08:58.096Z,991.15
2018-03-04T14:10:59.508Z,991.09
2018-03-04T14:13:00.938Z,991.11
2018-03-04T14:15:02.358Z,991.13
2018-03-04T14:17:03.780Z,991.14
2018-03-04T14:19:05.214Z,991.13
2018-03-04T14:21:06.689Z,991.10
2018-03-04T14:23:08.111Z,991.11
2018-03-04T14:25:09.525Z,991.12
2018-03-04T14:27:11.053Z,991.14
2018-03-04T14:29:12.549Z,991.15
2018-03-04T14:31:14.004Z,991.09
2018-03-04T14:33:15.623Z,991.10
2018-03-04T14:35:17.114Z,991.07
2018-03-04T14:37:18.641Z,991.02
2018-03-04T14:39:20.045Z,991.03
2018-03-04T14:41:21.460Z,991.07
2018-03-04T14:43:22.880Z,991.03
2018-03-04T14:45:24.377Z,991.04
2018-03-04T14:47:25.813Z,991.04
2018-03-04T14:49:27.252Z,991.05
2018-03-04T14:52:10.104Z,991.03
2018-03-04T14:54:12.012Z,991.05
2018-03-04T14:56:13.418Z,990.96
2018-03-04T14:58:14.854Z,990.95
2018-03-04T15:00:16.272Z,990.93
2018-03-04T15:02:17.684Z,990.92
2018-03-04T15:04:19.104Z,990.91
2018-03-04T15:06:20.527Z,990.87
2018-03-04T15:08:22.063Z,990.84
2018-03-04T15:10:23.508Z,990.80
2018-03-04T15:12:24.944Z,990.74
2018-03-04T15:14:28.921Z,990.75
2018-03-04T15:16:30.520Z,990.66
2018-03-04T15:18:31.945Z,990.68
2018-03-04T15:20:33.649Z,990.66
2018-03-04T15:22:35.087Z,990.69
2018-03-04T15:24:36.505Z,990.64
2018-03-04T15:26:37.990Z,990.68
2018-03-04T15:28:39.886Z,990.65
2018-03-04T15:31:22.653Z,990.63
2018-03-04T15:33:24.527Z,990.61
2018-03-04T15:35:26.292Z,990.57
2018-03-04T15:37:27.865Z,990.51
2018-03-04T15:39:29.447Z,990.51
2018-03-04T15:41:30.881Z,990.42
2018-03-04T15:43:32.343Z,990.37
2018-03-04T15:45:33.875Z,990.39
2018-03-04T15:47:35.357Z,990.34
2018-03-04T15:50:18.979Z,990.25
2018-03-04T15:52:20.568Z,990.26
2018-03-04T15:54:22.495Z,990.23
2018-03-04T15:56:24.061Z,990.27
2018-03-04T15:58:25.798Z,990.21
2018-03-04T16:00:27.532Z,990.22
2018-03-04T16:02:30.467Z,990.14
2018-03-04T16:04:32.271Z,990.13
2018-03-04T16:06:34.045Z,990.14
2018-03-04T16:08:35.459Z,990.12
2018-03-04T16:10:36.891Z,990.04
2018-03-04T16:12:38.345Z,990.00
2018-03-04T16:14:39.836Z,989.94
2018-03-04T16:16:41.295Z,989.91
2018-03-04T16:18:42.840Z,989.90
2018-03-04T16:20:44.826Z,989.94
2018-03-04T16:22:46.687Z,989.85
2018-03-04T16:24:48.470Z,989.83
2018-03-04T16:26:55.166Z,989.78
2018-03-04T16:28:56.566Z,989.81
2018-03-04T16:31:39.827Z,989.83
2018-03-04T16:33:41.241Z,989.81
2018-03-04T16:35:42.653Z,989.77
2018-03-04T16:37:44.065Z,989.75
2018-03-04T16:39:45.530Z,989.70
2018-03-04T16:41:48.319Z,989.74
2018-03-04T16:43:49.695Z,989.72
2018-03-04T16:45:51.178Z,989.73
2018-03-04T16:47:52.604Z,989.67
2018-03-04T16:49:54.076Z,989.69
2018-03-04T16:51:55.623Z,989.68
2018-03-04T16:53:57.094Z,989.66
2018-03-04T16:55:58.586Z,989.64
2018-03-04T16:58:00.033Z,989.61
2018-03-04T17:00:01.497Z,989.62
2018-03-04T17:02:03.094Z,989.56
2018-03-04T17:04:05.155Z,989.52
2018-03-04T17:06:06.568Z,989.53
2018-03-04T17:08:49.557Z,989.49
2018-03-04T17:10:51.873Z,989.49
2018-03-04T17:12:53.287Z,989.40
2018-03-04T17:14:54.693Z,989.41
2018-03-04T17:16:56.116Z,989.42
2018-03-04T17:18:57.645Z,989.47
2018-03-04T17:20:59.725Z,989.52
2018-03-04T17:23:01.155Z,989.55
2018-03-04T17:25:03.237Z,989.47
2018-03-04T17:27:04.641Z,989.41
2018-03-04T17:29:06.057Z,989.49
2018-03-04T17:31:07.466Z,989.53
2018-03-04T17:33:08.874Z,989.56
2018-03-04T17:35:10.290Z,989.57
2018-03-04T17:37:12.450Z,989.57
2018-03-04T17:39:13.811Z,989.59
2018-03-04T17:41:15.232Z,989.57
2018-03-04T17:43:20.065Z,989.56
2018-03-04T17:45:22.393Z,989.56
2018-03-04T17:47:23.809Z,989.50
2018-03-04T17:49:25.911Z,989.54
2018-03-04T17:51:27.339Z,989.56
2018-03-04T17:53:28.750Z,989.59
2018-03-04T17:55:31.070Z,989.60
2018-03-04T17:57:32.483Z,989.57
2018-03-04T17:59:34.756Z,989.48
2018-03-04T18:01:36.969Z,989.50
2018-03-04T18:03:39.353Z,989.59
2018-03-04T18:05:40.823Z,989.59
2018-03-04T18:07:43.159Z,989.51
2018-03-04T18:09:44.566Z,989.44
2018-03-04T18:11:45.974Z,989.43
2018-03-04T18:13:47.896Z,989.39
2018-03-04T18:15:49.851Z,989.41
2018-03-04T18:17:52.022Z,989.45
2018-03-04T18:19:52.638Z,989.41
2018-03-04T18:21:54.059Z,989.39
2018-03-04T18:23:57.249Z,989.35
2018-03-04T18:25:58.667Z,989.26
2018-03-04T18:28:00.741Z,989.22
2018-03-04T18:30:02.733Z,989.25
2018-03-04T18:32:04.875Z,989.16
2018-03-04T18:34:06.284Z,989.15
2018-03-04T18:36:09.214Z,989.13
2018-03-04T18:38:10.620Z,989.12
2018-03-04T18:40:12.984Z,989.08
2018-03-04T18:42:14.983Z,989.13
2018-03-04T18:44:17.230Z,989.10
2018-03-04T18:46:19.087Z,989.12
2018-03-04T18:48:21.184Z,989.07
2018-03-04T18:50:22.588Z,989.09
2018-03-04T18:52:24.003Z,989.07
2018-03-04T18:54:25.564Z,989.11
2018-03-04T18:56:27.953Z,989.08
2018-03-04T18:58:29.360Z,989.14
2018-03-04T19:00:31.741Z,989.12
2018-03-04T19:02:33.860Z,989.20
2018-03-04T19:04:35.261Z,989.17
2018-03-04T19:06:39.024Z,989.27
2018-03-04T19:08:41.257Z,989.24
2018-03-04T19:10:42.674Z,989.28
2018-03-04T19:12:44.077Z,989.35
2018-03-04T19:14:46.277Z,989.29
2018-03-04T19:16:48.841Z,989.34
2018-03-04T19:18:52.629Z,989.31
2018-03-04T19:20:54.038Z,989.30
2018-03-04T19:22:56.197Z,989.30
2018-03-04T19:24:59.437Z,989.32
2018-03-04T19:27:01.738Z,989.25
2018-03-04T19:29:06.416Z,989.29
2018-03-04T19:31:07.831Z,989.28
2018-03-04T19:33:09.239Z,989.35
2018-03-04T19:35:15.228Z,989.36
2018-03-04T19:37:20.643Z,989.41
2018-03-04T19:39:26.578Z,989.30
2018-03-04T19:41:28.862Z,989.29
2018-03-04T19:43:30.356Z,989.39
2018-03-04T19:45:33.031Z,989.37
2018-03-04T19:47:35.162Z,989.36
2018-03-04T19:49:39.630Z,989.31
2018-03-04T19:51:43.684Z,989.31
2018-03-04T19:53:46.529Z,989.28
2018-03-04T19:55:52.528Z,989.22
2018-03-04T19:58:00.683Z,989.17
2018-03-04T20:00:04.776Z,989.17
2018-03-04T20:02:10.172Z,989.16
2018-03-04T20:04:17.529Z,989.11
2018-03-04T20:06:19.575Z,989.02
2018-03-04T20:08:24.032Z,988.91
2018-03-04T20:10:27.197Z,988.92
2018-03-04T20:12:30.890Z,988.87
2018-03-04T20:14:33.660Z,988.87
2018-03-04T20:16:36.922Z,988.83
2018-03-04T20:18:42.348Z,988.84
2018-03-04T20:20:45.532Z,988.77
2018-03-04T20:22:48.791Z,988.74
2018-03-04T20:24:54.149Z,988.75
2018-03-04T20:26:58.266Z,988.74
2018-03-04T20:29:01.981Z,988.66
2018-03-04T20:31:05.323Z,988.73
2018-03-04T20:33:09.198Z,988.76
2018-03-04T20:35:13.545Z,988.76
2018-03-04T20:37:16.567Z,988.73
2018-03-04T20:39:20.708Z,988.77
2018-03-04T20:41:23.775Z,988.77
2018-03-04T20:43:27.030Z,988.72
2018-03-04T20:45:31.126Z,988.71
2018-03-04T20:47:34.366Z,988.62
2018-03-04T20:49:37.852Z,988.55
2018-03-04T20:51:42.861Z,988.53
2018-03-04T20:53:46.946Z,988.59
2018-03-04T20:55:48.512Z,988.52
2018-03-04T20:57:50.702Z,988.53
2018-03-04T20:59:52.706Z,988.54
2018-03-04T21:01:55.136Z,988.51
2018-03-04T21:03:58.131Z,988.47
2018-03-04T21:05:59.668Z,988.48
2018-03-04T21:08:01.179Z,988.45
2018-03-04T21:10:02.708Z,988.36
2018-03-04T21:12:04.133Z,988.24
2018-03-04T21:14:05.558Z,988.21
2018-03-04T21:16:07.164Z,988.12
2018-03-04T21:18:08.589Z,988.06
2018-03-04T21:20:10.003Z,988.01
2018-03-04T21:22:11.422Z,987.96
2018-03-04T21:24:12.892Z,987.80
2018-03-04T21:26:14.242Z,987.66
2018-03-04T21:28:15.743Z,987.62
2018-03-04T21:30:17.273Z,987.61
2018-03-04T21:32:18.881Z,987.59
2018-03-04T21:34:20.310Z,987.58
2018-03-04T21:36:21.815Z,987.58
2018-03-04T21:38:23.128Z,987.44
2018-03-04T21:40:24.535Z,987.53
2018-03-04T21:42:25.944Z,987.67
2018-03-04T21:44:27.392Z,987.61
2018-03-04T21:47:09.752Z,987.69
2018-03-04T21:49:11.184Z,987.64
2018-03-04T21:51:12.567Z,987.69
2018-03-04T21:53:13.970Z,987.74
2018-03-04T21:55:15.376Z,987.72
2018-03-04T21:57:16.815Z,987.76
2018-03-04T21:59:18.217Z,987.74
2018-03-04T22:01:19.625Z,987.77
2018-03-04T22:03:21.660Z,987.76
2018-03-04T22:05:23.067Z,987.84
2018-03-04T22:07:24.473Z,987.82
2018-03-04T22:09:25.886Z,987.78
2018-03-04T22:11:27.306Z,987.69
2018-03-04T22:13:28.717Z,987.75
2018-03-04T22:15:30.125Z,987.75
2018-03-04T22:17:32.652Z,987.73
2018-03-04T22:19:34.113Z,987.77
2018-03-04T22:21:35.618Z,987.71
2018-03-04T22:23:37.091Z,987.71
2018-03-04T22:26:19.666Z,987.62
2018-03-04T22:28:21.081Z,987.69
2018-03-04T22:30:22.495Z,987.79
2018-03-04T22:32:24.087Z,987.78
2018-03-04T22:34:25.497Z,987.81
2018-03-04T22:36:26.924Z,987.77
2018-03-04T22:38:28.345Z,987.84
2018-03-04T22:40:29.769Z,987.77
2018-03-04T22:42:31.181Z,987.80
2018-03-04T22:45:13.571Z,987.73
2018-03-04T22:47:14.977Z,987.85
2018-03-04T22:49:16.384Z,987.73
2018-03-04T22:51:17.792Z,987.67
2018-03-04T22:53:19.230Z,987.67
2018-03-04T22:55:20.627Z,987.95
2018-03-04T22:57:22.205Z,987.95
2018-03-04T22:59:23.598Z,987.94
2018-03-04T23:01:25.025Z,987.82
2018-03-04T23:03:26.431Z,987.88
2018-03-04T23:06:08.813Z,987.94
2018-03-04T23:08:10.215Z,987.95
2018-03-04T23:10:11.664Z,988.00
2018-03-04T23:12:13.042Z,988.03
2018-03-04T23:14:14.460Z,988.07
2018-03-04T23:16:15.869Z,988.04
2018-03-04T23:18:17.279Z,988.02
2018-03-04T23:20:18.852Z,988.04
2018-03-04T23:22:20.260Z,988.12
2018-03-04T23:24:21.690Z,988.10
2018-03-04T23:26:23.222Z,988.24
2018-03-04T23:28:24.634Z,988.17
2018-03-04T23:30:26.041Z,988.18
2018-03-04T23:32:27.455Z,988.24
2018-03-04T23:34:28.860Z,988.28
2018-03-04T23:36:30.268Z,988.26
2018-03-04T23:38:31.672Z,988.30
2018-03-04T23:40:33.078Z,988.23
2018-03-04T23:42:34.493Z,988.33
2018-03-04T23:44:35.895Z,988.29
2018-03-04T23:46:37.303Z,988.32
2018-03-04T23:48:38.709Z,988.38
2018-03-04T23:50:40.160Z,988.40
2018-03-04T23:52:41.597Z,988.49
2018-03-04T23:54:43.045Z,988.48
2018-03-04T23:56:44.462Z,988.51
2018-03-04T23:58:45.922Z,988.54
